Time;durP1;ratioP1;P1;durP2;ratioP2;P2;SDS_P1;SDS_P2;PMS_P1;PMS_P2;Temp;Humidity;BMP_temperature;BMP_pressure;BME280_temperature;BME280_humidity;BME280_pressure;Samples;Min_cycle;Max_cycle;Signal;HPM_P1;HPM_P2
2021/07/09 00:01:36;;;;;;;0.10;0.10;;;;;;;;;;5047304;28;20060;-88
2021/07/09 00:04:03;;;;;;;0.10;0.10;;;;;;;;;;5049400;28;20086;-88
2021/07/09 00:06:29;;;;;;;0.10;0.10;;;;;;;;;;5032849;28;20087;-88
2021/07/09 00:08:55;;;;;;;0.10;0.10;;;;;;;;;;5033047;28;20483;-87
2021/07/09 00:11:21;;;;;;;0.10;0.10;;;;;;;;;;5032790;28;20697;-88
2021/07/09 00:13:49;;;;;;;0.10;0.10;;;;;;;;;;5049164;28;20042;-87
2021/07/09 00:16:15;;;;;;;0.10;0.10;;;;;;;;;;5032757;28;20091;-87
2021/07/09 00:18:42;;;;;;;0.10;0.10;;;;;;;;;;5048999;28;20053;-88
2021/07/09 00:21:08;;;;;;;0.10;0.10;;;;;;;;;;5032671;28;20041;-88
2021/07/09 00:23:34;;;;;;;0.10;0.10;;;;;;;;;;5015907;28;20452;-88
2021/07/09 00:26:00;;;;;;;0.20;0.20;;;;;;;;;;5033782;28;20452;-88
2021/07/09 00:28:26;;;;;;;0.10;0.10;;;;;;;;;;5048985;28;20481;-88
2021/07/09 00:30:52;;;;;;;0.10;0.10;;;;;;;;;;5032776;28;20045;-88
2021/07/09 00:33:18;;;;;;;0.20;0.20;;;;;;;;;;5032419;28;20049;-88
2021/07/09 00:35:44;;;;;;;0.10;0.10;;;;;;;;;;5031834;28;20037;-88
2021/07/09 00:38:10;;;;;;;0.20;0.20;;;;;;;;;;5048722;28;20052;-88
2021/07/09 00:40:36;;;;;;;0.10;0.10;;;;;;;;;;5032188;28;20485;-88
2021/07/09 00:43:03;;;;;;;0.17;0.17;;;;;;;;;;5048713;28;20136;-88
2021/07/09 00:45:29;;;;;;;0.10;0.10;;;;;;;;;;5048724;28;20120;-88
2021/07/09 00:47:55;;;;;;;0.10;0.10;;;;;;;;;;5048694;28;20033;-88
2021/07/09 00:50:22;;;;;;;0.10;0.10;;;;;;;;;;5032225;28;20069;-88
2021/07/09 00:52:48;;;;;;;0.10;0.10;;;;;;;;;;5048501;28;20086;-88
2021/07/09 00:55:15;;;;;;;0.10;0.10;;;;;;;;;;5048549;28;20045;-88
2021/07/09 00:57:41;;;;;;;0.10;0.10;;;;;;;;;;5031867;28;20042;-88
2021/07/09 01:00:08;;;;;;;0.10;0.10;;;;;;;;;;5031820;28;20389;-88
2021/07/09 01:02:34;;;;;;;0.10;0.10;;;;;;;;;;5048348;28;20037;-88
2021/07/09 01:05:00;;;;;;;0.10;0.10;;;;;;;;;;5031813;28;20411;-88
2021/07/09 01:07:26;;;;;;;0.20;0.20;;;;;;;;;;5048091;28;20347;-88
2021/07/09 01:09:52;;;;;;;0.20;0.20;;;;;;;;;;5031812;28;20049;-87
2021/07/09 01:12:21;;;;;;;0.20;0.20;;;;;;;;;;5048156;28;20114;-88
2021/07/09 01:14:48;;;;;;;0.10;0.10;;;;;;;;;;5032758;28;20049;-88
2021/07/09 01:17:14;;;;;;;0.10;0.10;;;;;;;;;;5047894;28;20422;-88
2021/07/09 01:19:40;;;;;;;0.10;0.10;;;;;;;;;;5031783;28;20444;-87
2021/07/09 01:22:07;;;;;;;0.10;0.10;;;;;;;;;;5048010;28;20481;-88
2021/07/09 01:24:33;;;;;;;0.10;0.10;;;;;;;;;;5048009;28;20041;-88
2021/07/09 01:26:59;;;;;;;0.75;0.20;;;;;;;;;;5047928;28;20069;-89
2021/07/09 01:29:25;;;;;;;0.10;0.10;;;;;;;;;;5031755;28;20053;-88
2021/07/09 01:31:51;;;;;;;0.10;0.10;;;;;;;;;;5031499;28;20057;-89
2021/07/09 01:34:17;;;;;;;0.20;0.20;;;;;;;;;;5047869;28;20052;-88
2021/07/09 01:36:43;;;;;;;0.10;0.10;;;;;;;;;;5047701;28;20037;-88
2021/07/09 01:39:09;;;;;;;0.10;0.10;;;;;;;;;;5047852;28;20033;-88
2021/07/09 01:41:35;;;;;;;0.20;0.20;;;;;;;;;;5031256;28;20037;-88
2021/07/09 01:44:02;;;;;;;0.20;0.20;;;;;;;;;;5031154;28;20128;-88
2021/07/09 01:46:28;;;;;;;0.10;0.10;;;;;;;;;;5030502;28;20560;-87
2021/07/09 01:48:54;;;;;;;0.13;0.13;;;;;;;;;;5031047;28;20044;-88
2021/07/09 01:51:20;;;;;;;0.10;0.10;;;;;;;;;;5047548;28;20038;-88
2021/07/09 01:53:46;;;;;;;0.10;0.10;;;;;;;;;;5031061;28;20053;-89
2021/07/09 01:56:12;;;;;;;0.10;0.10;;;;;;;;;;5047534;28;20481;-88
2021/07/09 01:58:39;;;;;;;0.10;0.10;;;;;;;;;;5047426;28;20041;-87
2021/07/09 02:01:08;;;;;;;0.10;0.10;;;;;;;;;;5014861;28;20520;-88
2021/07/09 02:03:34;;;;;;;0.10;0.10;;;;;;;;;;5032072;28;20042;-88
2021/07/09 02:06:00;;;;;;;0.10;0.10;;;;;;;;;;5030878;28;20056;-88
2021/07/09 02:08:26;;;;;;;0.10;0.10;;;;;;;;;;5031099;28;20037;-88
2021/07/09 02:10:52;;;;;;;0.10;0.10;;;;;;;;;;5047407;28;20038;-88
2021/07/09 02:13:18;;;;;;;0.10;0.10;;;;;;;;;;5030795;28;20049;-88
2021/07/09 02:15:51;;;;;;;;;;;;;;;;;;5031429;28;20042;-88
2021/07/09 02:18:17;;;;;;;0.10;0.10;;;;;;;;;;5031771;28;19917;-88
2021/07/09 02:20:43;;;;;;;0.10;0.10;;;;;;;;;;5030808;28;20045;-88
2021/07/09 02:23:10;;;;;;;0.30;0.30;;;;;;;;;;5047245;28;20048;-88
2021/07/09 02:25:36;;;;;;;0.20;0.20;;;;;;;;;;5047312;28;20037;-88
2021/07/09 02:28:02;;;;;;;0.10;0.10;;;;;;;;;;5047208;28;20045;-88
2021/07/09 02:30:29;;;;;;;0.10;0.10;;;;;;;;;;5032046;28;20412;-88
2021/07/09 02:32:55;;;;;;;0.10;0.10;;;;;;;;;;5030509;28;20163;-88
2021/07/09 02:35:22;;;;;;;0.10;0.10;;;;;;;;;;5047278;28;20041;-87
2021/07/09 02:37:48;;;;;;;0.10;0.10;;;;;;;;;;5047154;28;20484;-88
2021/07/09 02:40:15;;;;;;;0.10;0.10;;;;;;;;;;5031019;28;20095;-88
2021/07/09 02:42:42;;;;;;;0.10;0.10;;;;;;;;;;5047097;28;20083;-88
2021/07/09 02:45:10;;;;;;;0.10;0.10;;;;;;;;;;5047063;28;20040;-88
2021/07/09 02:47:36;;;;;;;0.10;0.10;;;;;;;;;;5030416;28;20183;-87
2021/07/09 02:50:04;;;;;;;0.10;0.10;;;;;;;;;;5047027;28;20033;-88
2021/07/09 02:52:30;;;;;;;0.10;0.10;;;;;;;;;;5030812;28;20446;-88
2021/07/09 02:54:56;;;;;;;0.10;0.10;;;;;;;;;;5047119;28;20445;-87
2021/07/09 02:57:22;;;;;;;0.20;0.20;;;;;;;;;;5030441;28;20045;-88
2021/07/09 02:59:48;;;;;;;0.20;0.20;;;;;;;;;;5050219;28;20405;-88
2021/07/09 03:02:14;;;;;;;0.10;0.10;;;;;;;;;;5050737;28;20111;-89
2021/07/09 03:04:40;;;;;;;0.10;0.10;;;;;;;;;;5050799;28;20495;-88
2021/07/09 03:07:06;;;;;;;0.10;0.10;;;;;;;;;;5035234;28;20037;-88
2021/07/09 03:09:32;;;;;;;0.10;0.10;;;;;;;;;;5050806;28;20084;-88
2021/07/09 03:11:58;;;;;;;0.10;0.10;;;;;;;;;;5034098;28;20096;-88
2021/07/09 03:14:24;;;;;;;0.10;0.10;;;;;;;;;;5050317;28;20370;-88
2021/07/09 03:16:52;;;;;;;0.20;0.20;;;;;;;;;;5035440;28;20045;-88
2021/07/09 03:19:18;;;;;;;0.10;0.10;;;;;;;;;;5050273;28;20046;-88
2021/07/09 03:21:44;;;;;;;0.10;0.10;;;;;;;;;;5035394;28;20052;-88
2021/07/09 03:24:10;;;;;;;2.72;0.80;;;;;;;;;;5017304;28;20079;-88
2021/07/09 03:26:36;;;;;;;0.10;0.10;;;;;;;;;;5033728;28;20140;-88
2021/07/09 03:29:02;;;;;;;0.20;0.20;;;;;;;;;;5033802;28;20061;-88
2021/07/09 03:31:28;;;;;;;0.20;0.20;;;;;;;;;;5033513;28;20489;-88
2021/07/09 03:33:55;;;;;;;0.10;0.10;;;;;;;;;;5050027;28;20441;-88
2021/07/09 03:36:21;;;;;;;0.10;0.10;;;;;;;;;;5033458;28;20400;-88
2021/07/09 03:38:48;;;;;;;0.20;0.20;;;;;;;;;;5050080;28;20041;-88
2021/07/09 03:41:14;;;;;;;0.20;0.20;;;;;;;;;;5034715;28;20060;-88
2021/07/09 03:43:40;;;;;;;0.30;0.30;;;;;;;;;;5033348;28;20488;-88
2021/07/09 03:46:06;;;;;;;0.10;0.10;;;;;;;;;;5033349;28;20128;-88
2021/07/09 03:48:32;;;;;;;0.17;0.17;;;;;;;;;;5049875;28;20063;-88
2021/07/09 03:50:58;;;;;;;0.10;0.10;;;;;;;;;;5049865;28;20033;-88
2021/07/09 03:53:24;;;;;;;0.10;0.10;;;;;;;;;;5049702;28;20063;-88
2021/07/09 03:55:50;;;;;;;0.10;0.10;;;;;;;;;;5049741;28;20045;-88
2021/07/09 03:58:16;;;;;;;0.20;0.20;;;;;;;;;;5034158;28;20037;-88
2021/07/09 04:00:42;;;;;;;0.10;0.10;;;;;;;;;;5034468;28;20049;-88
2021/07/09 04:03:08;;;;;;;0.10;0.10;;;;;;;;;;5049649;28;20095;-88
2021/07/09 04:05:34;;;;;;;0.10;0.10;;;;;;;;;;5034329;28;20041;-88
2021/07/09 04:08:00;;;;;;;0.10;0.10;;;;;;;;;;5034242;28;20037;-88
2021/07/09 04:10:27;;;;;;;0.10;0.10;;;;;;;;;;5048469;28;20112;-88
2021/07/09 04:12:53;;;;;;;0.10;0.10;;;;;;;;;;5032904;28;20053;-88
2021/07/09 04:15:20;;;;;;;0.20;0.20;;;;;;;;;;5032864;28;20113;-88
2021/07/09 04:17:48;;;;;;;0.13;0.13;;;;;;;;;;5032582;28;20057;-88
2021/07/09 04:20:14;;;;;;;0.10;0.10;;;;;;;;;;5032779;28;20046;-88
2021/07/09 04:22:40;;;;;;;0.20;0.20;;;;;;;;;;5049314;28;20560;-88
2021/07/09 04:25:08;;;;;;;0.15;0.15;;;;;;;;;;5032880;28;20213;-87
2021/07/09 04:27:35;;;;;;;0.10;0.10;;;;;;;;;;5032739;28;20111;-88
2021/07/09 04:30:01;;;;;;;0.17;0.17;;;;;;;;;;5032536;28;20075;-88
2021/07/09 04:32:28;;;;;;;0.10;0.10;;;;;;;;;;5048945;28;20041;-88
2021/07/09 04:34:54;;;;;;;0.10;0.10;;;;;;;;;;5048953;28;20053;-88
2021/07/09 04:37:20;;;;;;;0.10;0.10;;;;;;;;;;5032317;28;20037;-88
2021/07/09 04:39:47;;;;;;;0.10;0.10;;;;;;;;;;5032345;28;20038;-88
2021/07/09 04:42:13;;;;;;;0.10;0.10;;;;;;;;;;5048866;28;20037;-88
2021/07/09 04:44:39;;;;;;;0.10;0.10;;;;;;;;;;5048836;28;20500;-88
2021/07/09 04:47:05;;;;;;;0.10;0.10;;;;;;;;;;5048825;28;20072;-88
2021/07/09 04:49:32;;;;;;;0.10;0.10;;;;;;;;;;5032205;28;20069;-88
2021/07/09 04:51:58;;;;;;;0.10;0.10;;;;;;;;;;5048721;28;20347;-88
2021/07/09 04:54:24;;;;;;;0.17;0.17;;;;;;;;;;5048538;28;20065;-88
2021/07/09 04:56:50;;;;;;;0.10;0.10;;;;;;;;;;5048478;28;20033;-88
2021/07/09 04:59:16;;;;;;;0.10;0.10;;;;;;;;;;5048499;28;20465;-88
2021/07/09 05:01:42;;;;;;;0.10;0.10;;;;;;;;;;5031953;28;20048;-88
2021/07/09 05:04:09;;;;;;;0.10;0.10;;;;;;;;;;5031994;28;20072;-88
2021/07/09 05:06:35;;;;;;;0.20;0.20;;;;;;;;;;5048624;28;20034;-88
2021/07/09 05:09:02;;;;;;;0.10;0.10;;;;;;;;;;5048256;28;20044;-88
2021/07/09 05:11:28;;;;;;;0.20;0.20;;;;;;;;;;5031693;28;20045;-87
2021/07/09 05:13:54;;;;;;;0.20;0.20;;;;;;;;;;5048239;28;20155;-88
2021/07/09 05:16:20;;;;;;;0.13;0.13;;;;;;;;;;5033215;28;20033;-88
2021/07/09 05:18:48;;;;;;;0.22;0.22;;;;;;;;;;5047823;28;20461;-88
2021/07/09 05:21:14;;;;;;;0.10;0.10;;;;;;;;;;5031403;28;20499;-88
2021/07/09 05:23:40;;;;;;;0.30;0.30;;;;;;;;;;5048168;28;20481;-88
2021/07/09 05:26:06;;;;;;;0.10;0.10;;;;;;;;;;5048183;28;20509;-88
2021/07/09 05:28:32;;;;;;;0.20;0.20;;;;;;;;;;5031399;28;20040;-88
2021/07/09 05:30:58;;;;;;;0.10;0.10;;;;;;;;;;5048064;28;20465;-88
2021/07/09 05:33:24;;;;;;;0.15;0.15;;;;;;;;;;5047897;28;20060;-88
2021/07/09 05:35:50;;;;;;;0.10;0.10;;;;;;;;;;5047871;28;20041;-88
2021/07/09 05:38:16;;;;;;;0.20;0.20;;;;;;;;;;5047637;28;20061;-88
2021/07/09 05:40:42;;;;;;;0.10;0.10;;;;;;;;;;5031246;28;20048;-88
2021/07/09 05:43:08;;;;;;;0.10;0.10;;;;;;;;;;5014936;28;20053;-88
2021/07/09 05:45:35;;;;;;;0.20;0.20;;;;;;;;;;5031217;28;20060;-88
2021/07/09 05:48:01;;;;;;;0.15;0.15;;;;;;;;;;5032381;28;20034;-88
2021/07/09 05:50:27;;;;;;;0.10;0.10;;;;;;;;;;5047769;28;20060;-88
2021/07/09 05:52:55;;;;;;;0.20;0.20;;;;;;;;;;5030997;28;20041;-88
2021/07/09 05:55:21;;;;;;;0.10;0.10;;;;;;;;;;5031057;28;20168;-88
2021/07/09 05:57:47;;;;;;;0.15;0.15;;;;;;;;;;5047548;28;20112;-88
2021/07/09 06:00:13;;;;;;;0.10;0.10;;;;;;;;;;5032259;28;20037;-89
2021/07/09 06:02:39;;;;;;;0.10;0.10;;;;;;;;;;5047642;28;20400;-88
2021/07/09 06:05:06;;;;;;;0.10;0.10;;;;;;;;;;5031142;28;20128;-88
2021/07/09 06:07:32;;;;;;;0.10;0.10;;;;;;;;;;5047371;28;20473;-89
2021/07/09 06:09:58;;;;;;;0.20;0.20;;;;;;;;;;5047495;28;20045;-88
2021/07/09 06:12:24;;;;;;;0.28;0.28;;;;;;;;;;5047437;28;20037;-88
2021/07/09 06:14:53;;;;;;;0.10;0.10;;;;;;;;;;5047524;28;20128;-88
2021/07/09 06:17:19;;;;;;;0.20;0.20;;;;;;;;;;5046821;28;20099;-89
2021/07/09 06:19:47;;;;;;;0.35;0.32;;;;;;;;;;5031135;28;20041;-89
2021/07/09 06:22:13;;;;;;;0.10;0.10;;;;;;;;;;5048411;28;20045;-88
2021/07/09 06:24:39;;;;;;;0.10;0.10;;;;;;;;;;5032419;28;20057;-89
2021/07/09 06:27:06;;;;;;;0.10;0.10;;;;;;;;;;5032198;28;20471;-89
2021/07/09 06:29:32;;;;;;;0.10;0.10;;;;;;;;;;5048927;28;20029;-89
2021/07/09 06:31:58;;;;;;;0.10;0.10;;;;;;;;;;5032327;28;20473;-89
2021/07/09 06:34:24;;;;;;;0.20;0.20;;;;;;;;;;5034948;28;20060;-88
2021/07/09 06:36:51;;;;;;;0.20;0.20;;;;;;;;;;5051864;28;20048;-89
2021/07/09 06:39:17;;;;;;;0.30;0.30;;;;;;;;;;5052185;28;20042;-88
2021/07/09 06:41:43;;;;;;;0.10;0.10;;;;;;;;;;5035881;28;20044;-89
2021/07/09 06:44:09;;;;;;;0.20;0.20;;;;;;;;;;5035497;28;20049;-89
2021/07/09 06:46:35;;;;;;;0.25;0.25;;;;;;;;;;5035727;28;20651;-89
2021/07/09 06:49:01;;;;;;;0.20;0.20;;;;;;;;;;5035402;28;20164;-89
2021/07/09 06:51:27;;;;;;;0.30;0.30;;;;;;;;;;5037141;28;20060;-90
2021/07/09 06:53:53;;;;;;;0.20;0.20;;;;;;;;;;5036713;28;20531;-89
2021/07/09 06:56:19;;;;;;;0.20;0.20;;;;;;;;;;5036174;28;20041;-89
2021/07/09 06:58:45;;;;;;;0.20;0.20;;;;;;;;;;5053597;28;20037;-89
2021/07/09 07:01:11;;;;;;;0.47;0.47;;;;;;;;;;5054518;28;20037;-89
2021/07/09 07:03:37;;;;;;;0.30;0.30;;;;;;;;;;5035797;28;20080;-89
2021/07/09 07:06:03;;;;;;;0.20;0.20;;;;;;;;;;5051527;28;20037;-89
2021/07/09 07:08:30;;;;;;;0.10;0.10;;;;;;;;;;5035120;28;20041;-89
2021/07/09 07:10:56;;;;;;;1.48;0.52;;;;;;;;;;5051294;28;20040;-89
2021/07/09 07:13:23;;;;;;;0.10;0.10;;;;;;;;;;5034847;28;20033;-89
2021/07/09 07:15:49;;;;;;;0.25;0.25;;;;;;;;;;5034727;28;20041;-89
2021/07/09 07:18:15;;;;;;;0.20;0.20;;;;;;;;;;5050768;28;20437;-89
2021/07/09 07:20:44;;;;;;;0.10;0.10;;;;;;;;;;5050881;28;20049;-89
2021/07/09 07:23:10;;;;;;;0.25;0.25;;;;;;;;;;5034224;28;20079;-89
2021/07/09 07:25:37;;;;;;;0.10;0.10;;;;;;;;;;5034034;28;20036;-89
2021/07/09 07:28:03;;;;;;;0.30;0.30;;;;;;;;;;5050691;28;20037;-87
2021/07/09 07:30:29;;;;;;;0.20;0.20;;;;;;;;;;5050458;28;20065;-89
2021/07/09 07:32:55;;;;;;;0.20;0.20;;;;;;;;;;5050483;28;20041;-89
2021/07/09 07:35:21;;;;;;;0.30;0.30;;;;;;;;;;5033704;28;20040;-89
2021/07/09 07:37:47;;;;;;;0.20;0.20;;;;;;;;;;5050420;28;20090;-89
2021/07/09 07:40:14;;;;;;;0.10;0.10;;;;;;;;;;5050390;28;20037;-89
2021/07/09 07:42:40;;;;;;;0.20;0.20;;;;;;;;;;5050118;28;20045;-89
2021/07/09 07:45:06;;;;;;;0.20;0.20;;;;;;;;;;5048818;28;20397;-89
2021/07/09 07:47:32;;;;;;;0.10;0.10;;;;;;;;;;5050128;28;20033;-89
2021/07/09 07:49:58;;;;;;;0.43;0.43;;;;;;;;;;5033695;28;20049;-89
2021/07/09 07:52:24;;;;;;;0.20;0.20;;;;;;;;;;5050047;28;20033;-89
2021/07/09 07:54:51;;;;;;;0.10;0.10;;;;;;;;;;5049914;28;20042;-89
2021/07/09 07:57:17;;;;;;;0.10;0.10;;;;;;;;;;5049993;28;20044;-89
2021/07/09 07:59:45;;;;;;;0.10;0.10;;;;;;;;;;5049859;28;20141;-89
2021/07/09 08:02:11;;;;;;;0.30;0.30;;;;;;;;;;5033224;28;20049;-89
2021/07/09 08:04:37;;;;;;;0.20;0.20;;;;;;;;;;5033306;28;20045;-89
2021/07/09 08:07:06;;;;;;;0.28;0.28;;;;;;;;;;5034361;28;20112;-89
2021/07/09 08:09:34;;;;;;;0.20;0.20;;;;;;;;;;5033366;28;20042;-90
2021/07/09 08:12:01;;;;;;;0.20;0.20;;;;;;;;;;5032923;28;20037;-89
2021/07/09 08:14:27;;;;;;;0.20;0.20;;;;;;;;;;5032832;28;20033;-90
2021/07/09 08:16:54;;;;;;;0.30;0.30;;;;;;;;;;5017054;28;20144;-89
2021/07/09 08:19:20;;;;;;;0.20;0.20;;;;;;;;;;5049379;28;20068;-89
2021/07/09 08:21:47;;;;;;;0.10;0.10;;;;;;;;;;5033187;28;20041;-89
2021/07/09 08:24:14;;;;;;;0.10;0.10;;;;;;;;;;5032768;28;20033;-90
2021/07/09 08:26:40;;;;;;;0.20;0.20;;;;;;;;;;5032767;28;20117;-89
2021/07/09 08:29:06;;;;;;;0.17;0.17;;;;;;;;;;5049108;28;20041;-89
2021/07/09 08:31:33;;;;;;;0.60;0.60;;;;;;;;;;5049114;28;20037;-89
2021/07/09 08:34:01;;;;;;;0.20;0.20;;;;;;;;;;5032702;28;20042;-89
2021/07/09 08:36:27;;;;;;;0.10;0.10;;;;;;;;;;5032579;28;20115;-89
2021/07/09 08:38:53;;;;;;;0.20;0.20;;;;;;;;;;5032455;28;20042;-90
2021/07/09 08:41:19;;;;;;;0.35;0.35;;;;;;;;;;5049063;28;20096;-89
2021/07/09 08:43:46;;;;;;;0.30;0.30;;;;;;;;;;5048742;28;20045;-89
2021/07/09 08:46:12;;;;;;;0.25;0.25;;;;;;;;;;5048943;28;20147;-89
2021/07/09 08:48:39;;;;;;;0.20;0.20;;;;;;;;;;5048837;28;20160;-89
2021/07/09 08:51:05;;;;;;;0.20;0.20;;;;;;;;;;5048791;28;20496;-89
2021/07/09 08:53:31;;;;;;;0.20;0.20;;;;;;;;;;5032248;28;20041;-89
2021/07/09 08:55:57;;;;;;;0.20;0.20;;;;;;;;;;5048364;28;20068;-90
2021/07/09 08:58:23;;;;;;;0.10;0.10;;;;;;;;;;5032090;28;20038;-90
2021/07/09 09:00:50;;;;;;;0.20;0.20;;;;;;;;;;5032170;28;20068;-90
2021/07/09 09:03:20;;;;;;;0.17;0.17;;;;;;;;;;5031940;28;20033;-87
2021/07/09 09:05:46;;;;;;;0.32;0.32;;;;;;;;;;5032262;28;20198;-90
2021/07/09 09:08:14;;;;;;;0.10;0.10;;;;;;;;;;5031977;28;20042;-89
2021/07/09 09:10:46;;;;;;;0.95;0.90;;;;;;;;;;5048285;28;20037;-90
2021/07/09 09:13:19;;;;;;;0.20;0.20;;;;;;;;;;5048625;28;20041;-90
2021/07/09 09:16:05;;;;;;;0.45;0.45;;;;;;;;;;5032069;28;20095;-89
2021/07/09 09:18:33;;;;;;;0.20;0.20;;;;;;;;;;5031535;28;20127;-90
2021/07/09 09:21:00;;;;;;;0.10;0.10;;;;;;;;;;5031909;28;20046;-89
2021/07/09 09:23:27;;;;;;;0.30;0.30;;;;;;;;;;5031712;28;20428;-89
2021/07/09 09:25:53;;;;;;;0.10;0.10;;;;;;;;;;5032983;28;20030;-89
2021/07/09 09:28:19;;;;;;;0.30;0.30;;;;;;;;;;5031662;28;20493;-90
2021/07/09 09:30:45;;;;;;;0.17;0.17;;;;;;;;;;5048968;28;20060;-88
2021/07/09 09:33:12;;;;;;;0.20;0.20;;;;;;;;;;5032797;28;20038;-91
2021/07/09 09:35:42;;;;;;;0.20;0.20;;;;;;;;;;5048216;28;20049;-90
2021/07/09 09:38:09;;;;;;;0.20;0.20;;;;;;;;;;5031491;28;20127;-91
2021/07/09 09:40:35;;;;;;;0.20;0.20;;;;;;;;;;5048003;28;20037;-90
2021/07/09 09:43:08;;;;;;;0.15;0.15;;;;;;;;;;5047954;28;20523;-90
2021/07/09 09:45:34;;;;;;;0.30;0.30;;;;;;;;;;5031402;28;20491;-90
2021/07/09 09:48:07;;;;;;;0.28;0.20;;;;;;;;;;5031449;28;20045;-90
2021/07/09 09:51:01;;;;;;;0.20;0.20;;;;;;;;;;5047605;28;20038;-90
2021/07/09 09:53:34;;;;;;;0.20;0.20;;;;;;;;;;5028057;28;20057;-89
2021/07/09 09:56:06;;;;;;;0.20;0.20;;;;;;;;;;5031239;28;20145;-90
2021/07/09 09:58:32;;;;;;;0.32;0.32;;;;;;;;;;5031405;28;20507;-90
2021/07/09 10:00:58;;;;;;;0.20;0.20;;;;;;;;;;5047683;28;20068;-91
2021/07/09 10:03:24;;;;;;;0.20;0.20;;;;;;;;;;5047970;28;20109;-91
2021/07/09 10:05:51;;;;;;;0.30;0.30;;;;;;;;;;5047614;28;20061;-90
2021/07/09 10:08:18;;;;;;;0.30;0.30;;;;;;;;;;5047050;28;20033;-94
2021/07/09 10:10:44;;;;;;;0.20;0.20;;;;;;;;;;5031702;28;20037;-92
2021/07/09 10:13:13;;;;;;;0.30;0.30;;;;;;;;;;5032684;28;20041;-92
2021/07/09 10:15:40;;;;;;;0.20;0.20;;;;;;;;;;5032988;28;20049;-93
2021/07/09 10:18:06;;;;;;;0.20;0.20;;;;;;;;;;5032498;28;20054;-93
2021/07/09 10:20:32;;;;;;;0.20;0.20;;;;;;;;;;5048869;28;20091;-92
2021/07/09 10:23:03;;;;;;;0.10;0.10;;;;;;;;;;5048142;28;20381;-92
2021/07/09 10:25:31;;;;;;;0.20;0.20;;;;;;;;;;5032562;28;20408;-91
2021/07/09 10:27:59;;;;;;;0.20;0.20;;;;;;;;;;5032058;28;20159;-90
2021/07/09 10:30:34;;;;;;;0.20;0.20;;;;;;;;;;5033310;28;20492;-90
2021/07/09 10:33:03;;;;;;;0.20;0.20;;;;;;;;;;5016207;28;20068;-92
2021/07/09 10:35:37;;;;;;;0.30;0.20;;;;;;;;;;5014969;28;20091;-92
2021/07/09 10:38:24;;;;;;;0.10;0.10;;;;;;;;;;5014779;28;20099;-93
2021/07/09 10:40:51;;;;;;;0.28;0.20;;;;;;;;;;5016897;28;20056;-93
2021/07/09 10:43:18;;;;;;;0.10;0.10;;;;;;;;;;5031881;28;20033;-93
2021/07/09 10:45:45;;;;;;;0.47;0.47;;;;;;;;;;5015008;28;20096;-93
2021/07/09 10:48:12;;;;;;;0.20;0.20;;;;;;;;;;5031378;28;20037;-92
2021/07/09 10:50:46;;;;;;;0.20;0.20;;;;;;;;;;5031268;28;20042;-93
2021/07/09 10:53:13;;;;;;;0.50;0.50;;;;;;;;;;5032950;28;20040;-95
2021/07/09 10:55:42;;;;;;;0.20;0.20;;;;;;;;;;5014798;28;20451;-89
2021/07/09 10:58:09;;;;;;;0.20;0.20;;;;;;;;;;5047305;28;20439;-92
2021/07/09 11:00:57;;;;;;;0.30;0.30;;;;;;;;;;5031110;28;20123;-92
2021/07/09 11:03:23;;;;;;;0.20;0.20;;;;;;;;;;5031280;28;20141;-91
2021/07/09 11:05:49;;;;;;;0.10;0.10;;;;;;;;;;5030849;28;20096;-93
2021/07/09 11:08:34;;;;;;;0.75;0.60;;;;;;;;;;5032677;28;20397;-94
2021/07/09 11:11:00;;;;;;;0.20;0.20;;;;;;;;;;5031132;28;20120;-89
2021/07/09 11:13:42;;;;;;;0.20;0.20;;;;;;;;;;5030480;28;20402;-88
2021/07/09 11:16:23;;;;;;;0.20;0.20;;;;;;;;;;5030854;28;20077;-92
2021/07/09 11:19:04;;;;;;;0.20;0.20;;;;;;;;;;5032398;28;20078;-92
2021/07/09 11:21:33;;;;;;;0.20;0.20;;;;;;;;;;5034602;28;20129;-90
2021/07/09 11:24:00;;;;;;;0.10;0.10;;;;;;;;;;5034343;28;20443;-89
2021/07/09 11:26:27;;;;;;;0.20;0.20;;;;;;;;;;5017446;28;20505;-90
2021/07/09 11:28:53;;;;;;;0.10;0.10;;;;;;;;;;5033815;28;20053;-91
2021/07/09 11:31:35;;;;;;;0.13;0.13;;;;;;;;;;5034207;28;20045;-89
2021/07/09 11:34:01;;;;;;;;;;;;;;;;;;5034415;28;20045;-89
2021/07/09 11:36:27;;;;;;;0.10;0.10;;;;;;;;;;5035128;28;19917;-93
2021/07/09 11:39:06;;;;;;;0.20;0.20;;;;;;;;;;5050779;28;20472;-92
2021/07/09 11:41:32;;;;;;;0.20;0.20;;;;;;;;;;5050303;28;20136;-91
2021/07/09 11:44:00;;;;;;;0.20;0.20;;;;;;;;;;5050384;28;20043;-91
2021/07/09 11:46:27;;;;;;;0.10;0.10;;;;;;;;;;5033315;28;20046;-92
2021/07/09 11:48:53;;;;;;;0.20;0.20;;;;;;;;;;5050149;28;20033;-92
2021/07/09 11:51:19;;;;;;;0.30;0.30;;;;;;;;;;5033449;28;20044;-90
2021/07/09 11:54:03;;;;;;;0.20;0.20;;;;;;;;;;5017075;28;20053;-91
2021/07/09 11:56:38;;;;;;;0.10;0.10;;;;;;;;;;5033527;28;20041;-90
2021/07/09 11:59:14;;;;;;;0.20;0.20;;;;;;;;;;5033431;28;20475;-92
2021/07/09 12:01:40;;;;;;;0.20;0.20;;;;;;;;;;5033261;28;20133;-93
2021/07/09 12:04:06;;;;;;;0.10;0.10;;;;;;;;;;5050167;28;20442;-90
2021/07/09 12:06:32;;;;;;;0.20;0.20;;;;;;;;;;5033333;28;20409;-91
2021/07/09 12:08:59;;;;;;;0.20;0.20;;;;;;;;;;5033354;28;20116;-91
2021/07/09 12:11:25;;;;;;;0.10;0.10;;;;;;;;;;5033129;28;20142;-91
2021/07/09 12:14:07;;;;;;;0.20;0.20;;;;;;;;;;5033177;28;20041;-91
2021/07/09 12:16:33;;;;;;;0.20;0.20;;;;;;;;;;5033086;28;20041;-89
2021/07/09 12:19:01;;;;;;;0.20;0.20;;;;;;;;;;5049307;28;20059;-88
2021/07/09 12:21:27;;;;;;;0.20;0.20;;;;;;;;;;5032689;28;20069;-85
2021/07/09 12:24:03;;;;;;;0.25;0.25;;;;;;;;;;5049185;28;20072;-85
2021/07/09 12:26:30;;;;;;;0.20;0.20;;;;;;;;;;5049121;28;20037;-88
2021/07/09 12:28:56;;;;;;;0.20;0.20;;;;;;;;;;5049152;28;20457;-89
2021/07/09 12:31:22;;;;;;;0.20;0.20;;;;;;;;;;5048779;28;20069;-88
2021/07/09 12:33:52;;;;;;;0.10;0.10;;;;;;;;;;5032405;28;20083;-87
2021/07/09 12:36:20;;;;;;;0.20;0.20;;;;;;;;;;5032545;28;20041;-90
2021/07/09 12:38:55;;;;;;;0.70;0.20;;;;;;;;;;5032365;28;20069;-88
2021/07/09 12:41:21;;;;;;;0.10;0.10;;;;;;;;;;5048883;28;20485;-87
2021/07/09 12:43:47;;;;;;;0.10;0.10;;;;;;;;;;5032316;28;20106;-87
2021/07/09 12:46:14;;;;;;;0.20;0.20;;;;;;;;;;5032349;28;20468;-88
2021/07/09 12:48:41;;;;;;;0.10;0.10;;;;;;;;;;5048593;28;20042;-87
2021/07/09 12:51:21;;;;;;;0.20;0.20;;;;;;;;;;5048621;28;20029;-87
2021/07/09 12:53:58;;;;;;;0.15;0.15;;;;;;;;;;5031793;28;20103;-89
2021/07/09 12:56:25;;;;;;;0.20;0.20;;;;;;;;;;5048302;28;20069;-88
2021/07/09 12:58:57;;;;;;;0.20;0.20;;;;;;;;;;5048623;28;20044;-90
2021/07/09 13:01:23;;;;;;;0.20;0.20;;;;;;;;;;5048757;28;20112;-88
2021/07/09 13:03:49;;;;;;;0.10;0.10;;;;;;;;;;5031906;28;20059;-88
2021/07/09 13:06:17;;;;;;;0.20;0.20;;;;;;;;;;5031702;28;20158;-88
2021/07/09 13:08:44;;;;;;;0.52;0.52;;;;;;;;;;5032025;28;20048;-88
2021/07/09 13:11:11;;;;;;;0.10;0.10;;;;;;;;;;5031647;28;20038;-88
2021/07/09 13:13:41;;;;;;;0.10;0.10;;;;;;;;;;5048291;28;20060;-89
2021/07/09 13:16:11;;;;;;;0.20;0.20;;;;;;;;;;5031819;28;20042;-89
2021/07/09 13:18:38;;;;;;;0.20;0.20;;;;;;;;;;5047927;28;20400;-90
2021/07/09 13:21:11;;;;;;;0.10;0.10;;;;;;;;;;5031832;28;20053;-90
2021/07/09 13:23:38;;;;;;;0.20;0.20;;;;;;;;;;5048269;28;20436;-89
2021/07/09 13:26:15;;;;;;;0.20;0.20;;;;;;;;;;5031803;28;20041;-88
2021/07/09 13:28:44;;;;;;;0.20;0.20;;;;;;;;;;5031576;28;20049;-88
2021/07/09 13:31:10;;;;;;;0.30;0.30;;;;;;;;;;5032649;28;20040;-89
2021/07/09 13:33:37;;;;;;;0.20;0.20;;;;;;;;;;5047997;28;20429;-90
2021/07/09 13:36:03;;;;;;;0.20;0.20;;;;;;;;;;5031755;28;20437;-90
2021/07/09 13:38:29;;;;;;;0.10;0.10;;;;;;;;;;5047960;28;20059;-92
2021/07/09 13:40:55;;;;;;;0.20;0.20;;;;;;;;;;5031525;28;20049;-90
2021/07/09 13:43:22;;;;;;;0.10;0.10;;;;;;;;;;5031639;28;20171;-93
2021/07/09 13:45:50;;;;;;;0.20;0.20;;;;;;;;;;5031323;28;20037;-90
2021/07/09 13:48:18;;;;;;;0.20;0.20;;;;;;;;;;5031163;28;20120;-90
2021/07/09 13:50:44;;;;;;;0.20;0.20;;;;;;;;;;5014926;28;20041;-89
2021/07/09 13:53:11;;;;;;;0.20;0.20;;;;;;;;;;5047883;28;20040;-91
2021/07/09 13:55:37;;;;;;;0.20;0.20;;;;;;;;;;5031119;28;20538;-91
2021/07/09 13:58:03;;;;;;;0.20;0.20;;;;;;;;;;5014479;28;20481;-90
2021/07/09 14:00:31;;;;;;;0.20;0.20;;;;;;;;;;5015015;28;20291;-87
2021/07/09 14:02:57;;;;;;;0.20;0.20;;;;;;;;;;5031176;28;20048;-88
2021/07/09 14:05:23;;;;;;;0.20;0.20;;;;;;;;;;5030899;28;20038;-87
2021/07/09 14:07:49;;;;;;;0.20;0.20;;;;;;;;;;5030758;28;20055;-87
2021/07/09 14:10:15;;;;;;;0.20;0.20;;;;;;;;;;5047363;28;20432;-87
2021/07/09 14:12:44;;;;;;;0.20;0.20;;;;;;;;;;5047380;28;20389;-86
2021/07/09 14:15:10;;;;;;;0.20;0.20;;;;;;;;;;5047608;28;20045;-88
2021/07/09 14:17:36;;;;;;;0.10;0.10;;;;;;;;;;5030781;28;20085;-90
2021/07/09 14:20:02;;;;;;;0.10;0.10;;;;;;;;;;5047423;28;20037;-89
2021/07/09 14:22:29;;;;;;;0.20;0.20;;;;;;;;;;5031214;28;20124;-87
2021/07/09 14:24:55;;;;;;;0.20;0.20;;;;;;;;;;5047082;28;20041;-87
2021/07/09 14:27:21;;;;;;;0.20;0.20;;;;;;;;;;5031941;28;20099;-88
2021/07/09 14:29:51;;;;;;;0.10;0.10;;;;;;;;;;5030687;28;20045;-87
2021/07/09 14:32:17;;;;;;;0.20;0.20;;;;;;;;;;5030676;28;20061;-87
2021/07/09 14:34:46;;;;;;;0.10;0.10;;;;;;;;;;5030723;28;20057;-88
2021/07/09 14:37:12;;;;;;;0.10;0.10;;;;;;;;;;5030918;28;20129;-87
2021/07/09 14:39:40;;;;;;;0.20;0.20;;;;;;;;;;5030739;28;20527;-87
2021/07/09 14:42:07;;;;;;;0.20;0.20;;;;;;;;;;5047062;28;20037;-88
2021/07/09 14:44:33;;;;;;;0.20;0.20;;;;;;;;;;5047635;28;20095;-92